Time;durP1;ratioP1;P1;durP2;ratioP2;P2;SDS_P1;SDS_P2;PMS_P1;PMS_P2;Temp;Humidity;BMP_temperature;BMP_pressure;BME280_temperature;BME280_humidity;BME280_pressure;Samples;Min_cycle;Max_cycle;Signal;HPM_P1;HPM_P2
2021/11/16 00:02:13;;;;;;;75.25;38.30;;;;;;;;;;5070881;28;20044;-73
2021/11/16 00:04:41;;;;;;;74.60;39.42;;;;;;;;;;5091806;28;20186;-73
2021/11/16 00:07:07;;;;;;;80.85;38.40;;;;;;;;;;5088906;28;20478;-73
2021/11/16 00:09:34;;;;;;;77.22;39.15;;;;;;;;;;5091065;28;20043;-73
2021/11/16 00:12:00;;;;;;;84.80;41.13;;;;;;;;;;5088961;28;20040;-73
2021/11/16 00:14:28;;;;;;;75.50;39.33;;;;;;;;;;5088946;28;20081;-73
2021/11/16 00:16:55;;;;;;;77.10;38.63;;;;;;;;;;5081384;28;20101;-73
2021/11/16 00:19:21;;;;;;;75.30;40.55;;;;;;;;;;5090374;28;20130;-73
2021/11/16 00:21:49;;;;;;;84.35;39.53;;;;;;;;;;5086081;28;20036;-73
2021/11/16 00:24:19;;;;;;;86.97;43.08;;;;;;;;;;5089674;28;20407;-73
2021/11/16 00:26:46;;;;;;;77.70;39.40;;;;;;;;;;5087593;28;20036;-73
2021/11/16 00:29:13;;;;;;;78.40;38.88;;;;;;;;;;5084473;28;20048;-73
2021/11/16 00:31:39;;;;;;;79.03;39.38;;;;;;;;;;5088648;28;20462;-72
2021/11/16 00:34:06;;;;;;;77.07;38.78;;;;;;;;;;5086241;28;20047;-73
2021/11/16 00:36:32;;;;;;;79.63;39.20;;;;;;;;;;5089857;28;20067;-73
2021/11/16 00:38:59;;;;;;;76.43;37.95;;;;;;;;;;5091048;28;20455;-73
2021/11/16 00:41:25;;;;;;;85.28;41.85;;;;;;;;;;5091750;28;20040;-73
2021/11/16 00:43:52;;;;;;;76.95;37.42;;;;;;;;;;5088895;28;20069;-73
2021/11/16 00:46:18;;;;;;;76.53;38.05;;;;;;;;;;5091340;28;20117;-73
2021/11/16 00:48:44;;;;;;;75.88;38.53;;;;;;;;;;5091458;28;20044;-73
2021/11/16 00:51:12;;;;;;;72.93;37.35;;;;;;;;;;5092835;28;20093;-73
2021/11/16 00:53:39;;;;;;;75.00;37.20;;;;;;;;;;5089053;28;20072;-73
2021/11/16 00:56:06;;;;;;;77.25;37.45;;;;;;;;;;5092318;28;20040;-73
2021/11/16 00:58:33;;;;;;;79.55;37.97;;;;;;;;;;5099127;28;20070;-73
2021/11/16 01:01:00;;;;;;;67.97;34.53;;;;;;;;;;5092545;28;20138;-72
2021/11/16 01:03:26;;;;;;;73.07;36.88;;;;;;;;;;5095819;28;20046;-73
2021/11/16 01:05:53;;;;;;;77.53;37.95;;;;;;;;;;5093949;28;20086;-73
2021/11/16 01:08:20;;;;;;;80.82;38.40;;;;;;;;;;5102633;27;20127;-73
2021/11/16 01:10:46;;;;;;;74.38;38.20;;;;;;;;;;5090107;28;20051;-73
2021/11/16 01:13:13;;;;;;;78.05;36.03;;;;;;;;;;5092201;28;20058;-73
2021/11/16 01:15:41;;;;;;;77.45;37.58;;;;;;;;;;5092201;28;20040;-73
2021/11/16 01:18:07;;;;;;;75.85;37.70;;;;;;;;;;5093217;28;20407;-73
2021/11/16 01:20:34;;;;;;;72.82;35.95;;;;;;;;;;5087189;28;20059;-73
2021/11/16 01:23:01;;;;;;;82.15;37.33;;;;;;;;;;5089901;28;20052;-73
2021/11/16 01:25:27;;;;;;;81.97;38.78;;;;;;;;;;5096737;28;20067;-73
2021/11/16 01:27:59;;;;;;;78.93;37.92;;;;;;;;;;5093879;28;20119;-73
2021/11/16 01:30:27;;;;;;;78.38;38.63;;;;;;;;;;5095377;28;20082;-72
2021/11/16 01:35:27;;;;;;;75.82;37.63;;;;;;;;;;5096363;28;20047;-73
2021/11/16 01:37:53;;;;;;;78.85;38.55;;;;;;;;;;5089742;28;20112;-73
2021/11/16 01:40:20;;;;;;;85.78;38.92;;;;;;;;;;5091836;28;20036;-72
2021/11/16 01:42:48;;;;;;;75.60;37.90;;;;;;;;;;5090963;28;20106;-73
2021/11/16 01:45:16;;;;;;;92.45;41.90;;;;;;;;;;5090850;28;20066;-73
2021/11/16 01:47:43;;;;;;;84.20;41.28;;;;;;;;;;5090060;28;20455;-73
2021/11/16 01:50:10;;;;;;;82.97;40.58;;;;;;;;;;5087960;28;20040;-73
2021/11/16 01:52:36;;;;;;;78.40;38.33;;;;;;;;;;5089621;28;20059;-73
2021/11/16 01:55:02;;;;;;;82.63;39.60;;;;;;;;;;5091795;28;20074;-73
2021/11/16 01:57:28;;;;;;;76.97;39.72;;;;;;;;;;5084315;28;20044;-73
2021/11/16 01:59:54;;;;;;;83.07;39.78;;;;;;;;;;5087574;28;20467;-73
2021/11/16 02:02:20;;;;;;;82.57;39.25;;;;;;;;;;5090822;28;20779;-73
2021/11/16 02:04:47;;;;;;;82.68;40.38;;;;;;;;;;5090333;28;20525;-73
2021/11/16 02:07:13;;;;;;;78.15;38.38;;;;;;;;;;5091068;28;20054;-72
2021/11/16 02:09:39;;;;;;;81.85;39.03;;;;;;;;;;5087746;28;20044;-73
2021/11/16 02:12:06;;;;;;;75.20;38.42;;;;;;;;;;5086183;28;20047;-73
2021/11/16 02:14:32;;;;;;;82.30;39.72;;;;;;;;;;5087976;28;20071;-73
2021/11/16 02:16:58;;;;;;;85.47;40.05;;;;;;;;;;5091993;28;20042;-73
2021/11/16 02:19:24;;;;;;;89.93;40.25;;;;;;;;;;5087066;28;20043;-74
2021/11/16 02:21:51;;;;;;;89.38;42.38;;;;;;;;;;5091239;28;20088;-73
2021/11/16 02:24:17;;;;;;;89.22;39.25;;;;;;;;;;5090745;28;20487;-72
2021/11/16 02:26:43;;;;;;;83.70;40.38;;;;;;;;;;5090478;28;20085;-73
2021/11/16 02:29:10;;;;;;;81.47;38.50;;;;;;;;;;5091046;28;20092;-73
2021/11/16 02:31:36;;;;;;;77.00;36.47;;;;;;;;;;5089591;28;20039;-72
2021/11/16 02:34:04;;;;;;;76.47;36.58;;;;;;;;;;5086522;28;20058;-73
2021/11/16 02:36:31;;;;;;;77.28;35.97;;;;;;;;;;5087664;28;20447;-73
2021/11/16 02:38:58;;;;;;;75.07;36.92;;;;;;;;;;5085193;28;20040;-69
2021/11/16 02:41:31;;;;;;;73.50;34.72;;;;;;;;;;5087988;28;20094;-73
2021/11/16 02:43:58;;;;;;;78.43;35.63;;;;;;;;;;5083404;28;20405;-73
2021/11/16 02:46:24;;;;;;;76.93;34.55;;;;;;;;;;5089123;28;20130;-73
2021/11/16 02:48:50;;;;;;;68.90;32.47;;;;;;;;;;5088258;28;20116;-73
2021/11/16 02:51:16;;;;;;;80.72;37.65;;;;;;;;;;5087991;28;20093;-73
2021/11/16 02:53:43;;;;;;;77.28;35.97;;;;;;;;;;5088402;28;20086;-73
2021/11/16 02:56:10;;;;;;;79.35;35.78;;;;;;;;;;5090575;28;20032;-73
2021/11/16 02:58:36;;;;;;;75.88;35.80;;;;;;;;;;5088811;28;20032;-73
2021/11/16 03:01:06;;;;;;;78.35;35.53;;;;;;;;;;5089468;28;20047;-73
2021/11/16 03:03:32;;;;;;;81.88;36.53;;;;;;;;;;5090622;28;20127;-73
2021/11/16 03:05:59;;;;;;;88.13;38.30;;;;;;;;;;5089694;28;20059;-73
2021/11/16 03:08:26;;;;;;;70.82;33.08;;;;;;;;;;5090525;28;20438;-73
2021/11/16 03:10:55;;;;;;;70.00;32.35;;;;;;;;;;5092301;28;20456;-73
2021/11/16 03:13:22;;;;;;;72.70;34.47;;;;;;;;;;5085961;28;20078;-73
2021/11/16 03:15:48;;;;;;;71.32;33.42;;;;;;;;;;5088685;28;20126;-73
2021/11/16 03:18:15;;;;;;;73.15;34.25;;;;;;;;;;5101903;27;20044;-73
2021/11/16 03:20:41;;;;;;;73.97;33.90;;;;;;;;;;5088376;28;20041;-73
2021/11/16 03:23:17;;;;;;;72.55;34.92;;;;;;;;;;5091046;28;20094;-73
2021/11/16 03:25:50;;;;;;;70.07;34.53;;;;;;;;;;5088962;28;20068;-73
2021/11/16 03:28:17;;;;;;;75.85;33.95;;;;;;;;;;5090899;28;20056;-73
2021/11/16 03:30:44;;;;;;;71.78;33.70;;;;;;;;;;5092923;28;20050;-73
2021/11/16 03:33:10;;;;;;;79.50;36.67;;;;;;;;;;5093076;28;20048;-73
2021/11/16 03:35:37;;;;;;;76.13;34.58;;;;;;;;;;5089922;28;20057;-73
2021/11/16 03:38:04;;;;;;;85.13;37.10;;;;;;;;;;5090223;28;20138;-73
2021/11/16 03:40:32;;;;;;;76.43;35.35;;;;;;;;;;5090297;28;20124;-73
2021/11/16 03:42:59;;;;;;;76.40;36.25;;;;;;;;;;5087460;28;20523;-73
2021/11/16 03:45:26;;;;;;;85.00;37.03;;;;;;;;;;5092817;28;20387;-73
2021/11/16 03:47:52;;;;;;;83.97;35.35;;;;;;;;;;5092909;28;20039;-73
2021/11/16 03:50:23;;;;;;;81.80;36.40;;;;;;;;;;5090344;28;20058;-73
2021/11/16 03:52:53;;;;;;;81.82;35.33;;;;;;;;;;5091987;28;20123;-73
2021/11/16 03:55:19;;;;;;;78.05;37.45;;;;;;;;;;5095121;28;20040;-73
2021/11/16 03:57:46;;;;;;;81.55;36.72;;;;;;;;;;5092797;28;20039;-73
2021/11/16 04:00:15;;;;;;;82.00;37.03;;;;;;;;;;5085267;28;20044;-73
2021/11/16 04:02:41;;;;;;;71.82;33.83;;;;;;;;;;5094140;28;20052;-73
2021/11/16 04:05:07;;;;;;;82.10;37.05;;;;;;;;;;5086731;28;20036;-73
2021/11/16 04:07:34;;;;;;;81.18;35.50;;;;;;;;;;5088296;28;20185;-73
2021/11/16 04:10:00;;;;;;;73.72;34.88;;;;;;;;;;5091537;28;20121;-73
2021/11/16 04:12:27;;;;;;;75.47;35.75;;;;;;;;;;5089838;28;20071;-73
2021/11/16 04:14:53;;;;;;;75.30;35.00;;;;;;;;;;5100174;28;20522;-73
2021/11/16 04:17:19;;;;;;;72.43;34.97;;;;;;;;;;5092027;28;20436;-73
2021/11/16 04:19:45;;;;;;;76.93;34.70;;;;;;;;;;5092270;28;20394;-73
2021/11/16 04:22:11;;;;;;;78.18;36.10;;;;;;;;;;5091550;28;20062;-73
2021/11/16 04:24:38;;;;;;;80.22;37.08;;;;;;;;;;5092607;28;20056;-73
2021/11/16 04:27:05;;;;;;;69.35;34.78;;;;;;;;;;5095052;28;20449;-73
2021/11/16 04:29:31;;;;;;;86.18;38.55;;;;;;;;;;5092957;28;20048;-73
2021/11/16 04:31:57;;;;;;;74.03;35.97;;;;;;;;;;5092606;28;20503;-73
2021/11/16 04:34:23;;;;;;;81.88;37.47;;;;;;;;;;5092424;28;20048;-73
2021/11/16 04:36:49;;;;;;;82.85;37.75;;;;;;;;;;5092372;28;20036;-73
2021/11/16 04:39:16;;;;;;;84.55;38.60;;;;;;;;;;5094689;28;20048;-73
2021/11/16 04:41:44;;;;;;;79.60;35.03;;;;;;;;;;5093596;28;20072;-73
2021/11/16 04:44:11;;;;;;;79.65;37.15;;;;;;;;;;5093062;28;20036;-73
2021/11/16 04:46:37;;;;;;;80.60;36.70;;;;;;;;;;5090206;28;20407;-73
2021/11/16 04:49:19;;;;;;;82.35;38.70;;;;;;;;;;5093142;28;20044;-73
2021/11/16 04:54:20;;;;;;;82.18;37.88;;;;;;;;;;5091590;28;20051;-73
2021/11/16 05:04:44;;;;;;;80.13;36.83;;;;;;;;;;5089710;28;20035;-73
2021/11/16 05:07:14;;;;;;;81.53;36.33;;;;;;;;;;5094302;28;20051;-73
2021/11/16 05:09:40;;;;;;;80.63;38.45;;;;;;;;;;5095322;28;20043;-73
2021/11/16 05:12:07;;;;;;;79.95;36.88;;;;;;;;;;5090839;28;20097;-73
2021/11/16 05:14:33;;;;;;;76.38;35.15;;;;;;;;;;5073352;28;20059;-72
2021/11/16 05:17:00;;;;;;;81.05;36.80;;;;;;;;;;5094340;28;20044;-73
2021/11/16 05:19:26;;;;;;;82.28;36.75;;;;;;;;;;5088709;28;20119;-73
2021/11/16 05:21:52;;;;;;;83.53;38.13;;;;;;;;;;5073359;28;20051;-73
2021/11/16 05:24:18;;;;;;;82.93;35.42;;;;;;;;;;5093149;28;20039;-73
2021/11/16 05:26:45;;;;;;;79.78;35.85;;;;;;;;;;5086267;28;20067;-73
2021/11/16 05:29:11;;;;;;;84.30;36.78;;;;;;;;;;5089787;28;20495;-73
2021/11/16 05:31:37;;;;;;;78.63;34.78;;;;;;;;;;5099012;28;20039;-73
2021/11/16 05:34:03;;;;;;;79.55;36.33;;;;;;;;;;5090136;28;20117;-73
2021/11/16 05:36:29;;;;;;;80.13;37.90;;;;;;;;;;5094545;28;20511;-73
2021/11/16 05:38:56;;;;;;;81.75;35.42;;;;;;;;;;5087766;28;20561;-73
2021/11/16 05:41:22;;;;;;;85.28;36.60;;;;;;;;;;5091475;28;20078;-73
2021/11/16 05:43:48;;;;;;;82.75;35.92;;;;;;;;;;5091365;28;20050;-73
2021/11/16 05:46:20;;;;;;;85.95;37.25;;;;;;;;;;5091881;28;20413;-73
2021/11/16 05:48:47;;;;;;;84.65;36.38;;;;;;;;;;5089268;28;20063;-72
2021/11/16 05:51:13;;;;;;;85.78;36.97;;;;;;;;;;5086950;28;20036;-74
2021/11/16 05:53:42;;;;;;;92.07;37.90;;;;;;;;;;5087671;28;20120;-79
2021/11/16 05:56:08;;;;;;;85.32;37.95;;;;;;;;;;5073508;28;20477;-75
2021/11/16 05:58:34;;;;;;;85.43;38.72;;;;;;;;;;5088492;28;20086;-74
2021/11/16 06:01:01;;;;;;;79.95;35.75;;;;;;;;;;5085928;28;20044;-73
2021/11/16 06:03:27;;;;;;;76.00;34.92;;;;;;;;;;5090966;28;20044;-73
2021/11/16 06:05:53;;;;;;;73.97;33.72;;;;;;;;;;5073655;28;20139;-72
2021/11/16 06:08:22;;;;;;;84.00;37.22;;;;;;;;;;5072437;28;20446;-73
2021/11/16 06:10:48;;;;;;;77.72;35.80;;;;;;;;;;5104429;27;20040;-74
2021/11/16 06:13:14;;;;;;;82.30;36.50;;;;;;;;;;5092146;28;20158;-75
2021/11/16 06:15:41;;;;;;;87.38;38.90;;;;;;;;;;5092777;28;20044;-75
2021/11/16 06:18:07;;;;;;;85.88;39.45;;;;;;;;;;5093035;28;20047;-74
2021/11/16 06:20:33;;;;;;;81.55;38.53;;;;;;;;;;5072025;28;20045;-74
2021/11/16 06:23:00;;;;;;;80.90;35.20;;;;;;;;;;5091309;28;20538;-73
2021/11/16 06:25:26;;;;;;;75.97;36.28;;;;;;;;;;5092700;28;20090;-70
2021/11/16 06:27:52;;;;;;;84.18;36.47;;;;;;;;;;5088617;28;20434;-73
2021/11/16 06:30:18;;;;;;;82.50;36.15;;;;;;;;;;5088178;28;20044;-75
2021/11/16 06:32:44;;;;;;;81.65;36.35;;;;;;;;;;5089493;28;20096;-73
2021/11/16 06:35:18;;;;;;;79.35;36.92;;;;;;;;;;5088576;28;20132;-73
2021/11/16 06:37:45;;;;;;;80.10;35.67;;;;;;;;;;5089992;28;20149;-73
2021/11/16 06:40:11;;;;;;;87.07;35.67;;;;;;;;;;5089339;28;20077;-73
2021/11/16 06:42:37;;;;;;;79.95;33.67;;;;;;;;;;5090144;28;20116;-73
2021/11/16 06:45:04;;;;;;;79.75;34.80;;;;;;;;;;5090750;28;20039;-73
2021/11/16 06:47:30;;;;;;;84.60;33.50;;;;;;;;;;5088906;28;20508;-73
2021/11/16 06:49:56;;;;;;;77.68;34.60;;;;;;;;;;5091337;28;20140;-73
2021/11/16 06:52:25;;;;;;;76.22;33.55;;;;;;;;;;5089494;28;20040;-73
2021/11/16 06:54:51;;;;;;;77.72;33.38;;;;;;;;;;5069821;28;20045;-73
2021/11/16 06:57:17;;;;;;;73.55;33.08;;;;;;;;;;5090608;28;20067;-73
2021/11/16 06:59:43;;;;;;;73.50;33.15;;;;;;;;;;5088805;28;20609;-73
2021/11/16 07:02:09;;;;;;;79.40;32.75;;;;;;;;;;5091455;28;20459;-73
2021/11/16 07:04:38;;;;;;;72.30;33.63;;;;;;;;;;5089790;28;20441;-73
2021/11/16 07:07:04;;;;;;;77.07;35.42;;;;;;;;;;5089999;28;20044;-73
2021/11/16 07:09:34;;;;;;;81.40;35.15;;;;;;;;;;5070154;28;20137;-73
2021/11/16 07:12:01;;;;;;;84.32;36.63;;;;;;;;;;5089938;28;20400;-72
2021/11/16 07:14:36;;;;;;;77.88;34.78;;;;;;;;;;5089373;28;20044;-73
2021/11/16 07:17:03;;;;;;;75.82;35.42;;;;;;;;;;5087173;28;20075;-73
2021/11/16 07:19:32;;;;;;;74.93;32.25;;;;;;;;;;5089299;28;20032;-73
2021/11/16 07:22:03;;;;;;;80.65;32.72;;;;;;;;;;5090057;28;20450;-74
2021/11/16 07:24:29;;;;;;;77.10;34.65;;;;;;;;;;5089202;28;20044;-70
2021/11/16 07:26:58;;;;;;;85.30;35.13;;;;;;;;;;5087925;28;20059;-70
2021/11/16 07:29:42;;;;;;;79.38;34.00;;;;;;;;;;5082434;28;20399;-71
2021/11/16 07:32:10;;;;;;;77.97;34.08;;;;;;;;;;5079922;28;20058;-70
2021/11/16 07:34:38;;;;;;;81.32;33.55;;;;;;;;;;5084300;28;20093;-70
2021/11/16 07:37:07;;;;;;;79.47;36.75;;;;;;;;;;5082119;28;20040;-71
2021/11/16 07:39:43;;;;;;;82.90;35.10;;;;;;;;;;5082247;28;20095;-70
2021/11/16 07:42:10;;;;;;;73.63;35.15;;;;;;;;;;5078983;28;20049;-70
2021/11/16 07:44:36;;;;;;;73.68;32.75;;;;;;;;;;5085179;28;20054;-70
2021/11/16 07:47:03;;;;;;;77.28;33.75;;;;;;;;;;5082616;28;20143;-71
2021/11/16 07:49:29;;;;;;;80.50;34.50;;;;;;;;;;5086243;28;20115;-70
2021/11/16 07:51:56;;;;;;;81.10;34.40;;;;;;;;;;5092332;28;20040;-70
2021/11/16 07:54:25;;;;;;;78.30;35.10;;;;;;;;;;5082974;28;20380;-71
2021/11/16 07:56:51;;;;;;;81.40;36.13;;;;;;;;;;5091552;28;20107;-71
2021/11/16 07:59:19;;;;;;;85.40;37.63;;;;;;;;;;5085842;28;20047;-69
2021/11/16 08:02:05;;;;;;;83.90;34.05;;;;;;;;;;5085941;28;20033;-70
2021/11/16 08:04:40;;;;;;;76.25;33.65;;;;;;;;;;5085562;28;20111;-69
2021/11/16 08:07:31;;;;;;;84.05;35.17;;;;;;;;;;5078423;28;20110;-69
2021/11/16 08:10:03;;;;;;;91.38;34.92;;;;;;;;;;5084676;28;20048;-69
2021/11/16 08:12:39;;;;;;;84.93;35.75;;;;;;;;;;5077726;28;20097;-70
2021/11/16 08:15:09;;;;;;;79.82;33.97;;;;;;;;;;5085695;28;20100;-69
2021/11/16 08:17:36;;;;;;;77.28;34.78;;;;;;;;;;5081537;28;20122;-69
2021/11/16 08:20:06;;;;;;;88.75;36.65;;;;;;;;;;5082778;28;20044;-71
2021/11/16 08:22:34;;;;;;;87.05;34.83;;;;;;;;;;5085289;28;20388;-69
2021/11/16 08:25:00;;;;;;;89.07;34.92;;;;;;;;;;5085018;28;20391;-69
2021/11/16 08:27:29;;;;;;;82.57;34.88;;;;;;;;;;5083575;28;20044;-69
2021/11/16 08:30:07;;;;;;;89.63;36.88;;;;;;;;;;5074664;28;20079;-69
2021/11/16 08:32:35;;;;;;;88.70;34.00;;;;;;;;;;5081767;28;20392;-69
2021/11/16 08:35:03;;;;;;;84.78;34.58;;;;;;;;;;5078686;28;20129;-69
2021/11/16 08:37:35;;;;;;;89.88;34.65;;;;;;;;;;5084698;28;20036;-69
2021/11/16 08:40:04;;;;;;;74.50;33.03;;;;;;;;;;5082195;28;20139;-69
2021/11/16 08:42:31;;;;;;;81.70;34.08;;;;;;;;;;5090420;28;20484;-69
2021/11/16 08:45:02;;;;;;;83.15;33.55;;;;;;;;;;5091663;28;20122;-69
2021/11/16 08:47:30;;;;;;;88.38;35.80;;;;;;;;;;5093321;28;20055;-69
2021/11/16 08:49:56;;;;;;;74.90;33.70;;;;;;;;;;5093572;28;20051;-69
2021/11/16 08:52:26;;;;;;;85.88;36.42;;;;;;;;;;5093091;28;20383;-69
2021/11/16 08:54:56;;;;;;;86.75;36.33;;;;;;;;;;5080272;28;20128;-69
2021/11/16 08:57:22;;;;;;;81.63;35.75;;;;;;;;;;5088569;28;20483;-69
2021/11/16 08:59:49;;;;;;;80.85;34.13;;;;;;;;;;5092034;28;20070;-69
2021/11/16 09:02:17;;;;;;;86.93;35.42;;;;;;;;;;5092077;28;20051;-69
2021/11/16 09:04:44;;;;;;;78.72;32.58;;;;;;;;;;5092040;28;20136;-69
2021/11/16 09:07:24;;;;;;;80.20;33.25;;;;;;;;;;5090964;28;20500;-69
2021/11/16 09:09:52;;;;;;;81.07;30.92;;;;;;;;;;5091766;28;20048;-69
2021/11/16 09:12:19;;;;;;;78.90;32.70;;;;;;;;;;5091807;28;20472;-69
2021/11/16 09:14:53;;;;;;;80.07;32.45;;;;;;;;;;5091241;28;20411;-69
2021/11/16 09:17:19;;;;;;;75.95;32.67;;;;;;;;;;5091430;28;20508;-69
2021/11/16 09:19:45;;;;;;;80.65;34.78;;;;;;;;;;5092792;28;20136;-69
2021/11/16 09:22:18;;;;;;;86.60;35.60;;;;;;;;;;5092486;28;20376;-69
2021/11/16 09:24:47;;;;;;;81.50;33.92;;;;;;;;;;5091364;28;20536;-69
2021/11/16 09:27:35;;;;;;;79.40;33.22;;;;;;;;;;5087802;28;20388;-69
2021/11/16 09:30:03;;;;;;;85.32;34.05;;;;;;;;;;5091240;28;20059;-68
2021/11/16 09:32:30;;;;;;;78.18;33.60;;;;;;;;;;5091135;28;20040;-68
2021/11/16 09:34:58;;;;;;;81.50;32.65;;;;;;;;;;5091528;28;20044;-69
2021/11/16 09:37:25;;;;;;;74.68;32.67;;;;;;;;;;5091774;28;20119;-71
2021/11/16 09:39:54;;;;;;;81.07;33.05;;;;;;;;;;5090720;28;20090;-69
2021/11/16 09:42:23;;;;;;;81.32;32.75;;;;;;;;;;5091906;28;20514;-69
2021/11/16 09:44:52;;;;;;;84.35;33.58;;;;;;;;;;5092421;28;20044;-71
2021/11/16 09:47:21;;;;;;;85.88;34.97;;;;;;;;;;5088622;28;20104;-69
2021/11/16 09:49:53;;;;;;;84.90;34.60;;;;;;;;;;5087696;28;20048;-69
2021/11/16 09:52:22;;;;;;;76.97;32.30;;;;;;;;;;5090997;28;20032;-70
2021/11/16 09:54:51;;;;;;;81.22;33.63;;;;;;;;;;5092175;28;20059;-69
2021/11/16 09:57:19;;;;;;;80.95;31.80;;;;;;;;;;5090122;28;20036;-70
2021/11/16 09:59:47;;;;;;;81.28;32.28;;;;;;;;;;5090795;28;20062;-70
2021/11/16 10:02:16;;;;;;;80.43;33.47;;;;;;;;;;5089953;28;20666;-69
2021/11/16 10:04:49;;;;;;;87.05;34.63;;;;;;;;;;5089452;28;20032;-70
2021/11/16 10:07:15;;;;;;;67.23;26.17;;;;;;;;;;5091878;28;20054;-70
2021/11/16 10:09:42;;;;;;;89.95;35.13;;;;;;;;;;5089452;28;20134;-70
2021/11/16 10:12:09;;;;;;;82.43;33.40;;;;;;;;;;5091099;28;20040;-70
2021/11/16 10:14:35;;;;;;;82.00;31.60;;;;;;;;;;5091915;28;20158;-70
2021/11/16 10:17:02;;;;;;;84.47;32.78;;;;;;;;;;5090159;28;20455;-70
2021/11/16 10:19:28;;;;;;;78.78;30.08;;;;;;;;;;5090972;28;20043;-70
2021/11/16 10:21:54;;;;;;;79.15;33.63;;;;;;;;;;5091762;28;20124;-70
2021/11/16 10:24:26;;;;;;;75.88;31.23;;;;;;;;;;5091060;28;20094;-70
2021/11/16 10:26:52;;;;;;;80.97;32.38;;;;;;;;;;5091992;28;20044;-70
2021/11/16 10:29:20;;;;;;;74.00;30.55;;;;;;;;;;5090406;28;20089;-70
2021/11/16 10:31:46;;;;;;;79.40;30.58;;;;;;;;;;5089792;28;20040;-70
2021/11/16 10:34:12;;;;;;;69.18;27.60;;;;;;;;;;5091564;28;20101;-70
2021/11/16 10:36:38;;;;;;;72.13;28.02;;;;;;;;;;5091280;28;20444;-70
2021/11/16 10:39:05;;;;;;;76.75;30.60;;;;;;;;;;5087435;28;20059;-70
2021/11/16 10:41:33;;;;;;;70.05;28.05;;;;;;;;;;5091085;28;20076;-70
2021/11/16 10:44:01;;;;;;;67.53;28.30;;;;;;;;;;5089060;28;20100;-70
2021/11/16 10:46:29;;;;;;;72.93;28.92;;;;;;;;;;5089332;28;20048;-70
2021/11/16 10:48:57;;;;;;;72.72;29.00;;;;;;;;;;5089847;28;20044;-69
2021/11/16 10:51:28;;;;;;;67.55;27.40;;;;;;;;;;5090470;28;20407;-69
2021/11/16 10:53:55;;;;;;;68.97;27.10;;;;;;;;;;5090084;28;20094;-70
2021/11/16 10:56:23;;;;;;;70.25;27.83;;;;;;;;;;5090040;28;20051;-70
2021/11/16 10:58:50;;;;;;;65.60;26.55;;;;;;;;;;5091171;28;20044;-70
2021/11/16 11:01:17;;;;;;;71.57;27.40;;;;;;;;;;5091318;28;20032;-70
2021/11/16 11:03:50;;;;;;;64.90;27.33;;;;;;;;;;5090013;28;20093;-70
2021/11/16 11:06:19;;;;;;;62.85;27.08;;;;;;;;;;5090405;28;20052;-69
2021/11/16 11:08:56;;;;;;;69.30;27.38;;;;;;;;;;5089588;28;20048;-69
2021/11/16 11:11:27;;;;;;;68.80;26.23;;;;;;;;;;5089877;28;20127;-70
2021/11/16 11:13:55;;;;;;;69.13;28.50;;;;;;;;;;5090398;28;20036;-70
2021/11/16 11:16:22;;;;;;;71.60;28.08;;;;;;;;;;5089524;28;20051;-69
2021/11/16 11:18:49;;;;;;;75.18;27.20;;;;;;;;;;5089943;28;20040;-69
2021/11/16 11:21:24;;;;;;;70.38;26.90;;;;;;;;;;5089732;28;20044;-70
2021/11/16 11:23:54;;;;;;;71.82;27.05;;;;;;;;;;5089589;28;20040;-70
2021/11/16 11:26:45;;;;;;;70.72;26.67;;;;;;;;;;5090855;28;20410;-70
2021/11/16 11:29:15;;;;;;;74.90;26.60;;;;;;;;;;5088667;28;20508;-70
2021/11/16 11:31:43;;;;;;;76.53;27.00;;;;;;;;;;5089811;28;20132;-70
2021/11/16 11:34:09;;;;;;;75.05;27.13;;;;;;;;;;5088284;28;20064;-70
2021/11/16 11:36:35;;;;;;;67.10;26.05;;;;;;;;;;5088740;28;20123;-72
2021/11/16 11:39:14;;;;;;;64.95;26.05;;;;;;;;;;5072623;28;20036;-70
2021/11/16 11:41:47;;;;;;;71.03;26.60;;;;;;;;;;5086180;28;20153;-71
2021/11/16 11:44:16;;;;;;;65.75;25.08;;;;;;;;;;5088087;28;20052;-70
2021/11/16 11:46:44;;;;;;;62.95;23.33;;;;;;;;;;5088801;28;20074;-70
2021/11/16 11:49:10;;;;;;;72.30;26.77;;;;;;;;;;5103132;28;20052;-71
2021/11/16 11:51:37;;;;;;;66.13;25.15;;;;;;;;;;5088237;28;20097;-71
2021/11/16 11:54:03;;;;;;;62.65;23.30;;;;;;;;;;5088637;28;20113;-70
2021/11/16 11:56:30;;;;;;;62.22;23.92;;;;;;;;;;5088011;28;20044;-71
2021/11/16 11:58:58;;;;;;;65.18;24.00;;;;;;;;;;5088264;28;20055;-71
2021/11/16 12:01:28;;;;;;;60.17;21.85;;;;;;;;;;5087702;28;20147;-71
2021/11/16 12:03:55;;;;;;;59.83;24.27;;;;;;;;;;5085538;28;20131;-70
2021/11/16 12:06:25;;;;;;;56.53;22.60;;;;;;;;;;5083962;28;20123;-70
2021/11/16 12:08:52;;;;;;;57.05;22.92;;;;;;;;;;5088224;28;20055;-71
2021/11/16 12:11:19;;;;;;;59.67;21.35;;;;;;;;;;5088414;28;20399;-71
2021/11/16 12:13:45;;;;;;;53.60;22.70;;;;;;;;;;5087677;28;20166;-71
2021/11/16 12:16:20;;;;;;;59.53;21.52;;;;;;;;;;5088664;28;20084;-69
2021/11/16 12:18:47;;;;;;;51.55;19.80;;;;;;;;;;5086180;28;20110;-70
2021/11/16 12:21:26;;;;;;;52.85;19.10;;;;;;;;;;5087618;28;20360;-69
2021/11/16 12:23:59;;;;;;;50.80;19.00;;;;;;;;;;5087796;28;20479;-70
2021/11/16 12:26:26;;;;;;;51.03;20.27;;;;;;;;;;5088351;28;20059;-69
2021/11/16 12:28:52;;;;;;;54.00;19.02;;;;;;;;;;5087662;28;20043;-69
2021/11/16 12:31:24;;;;;;;50.60;18.98;;;;;;;;;;5087328;28;20101;-69
2021/11/16 12:33:50;;;;;;;54.72;21.08;;;;;;;;;;5089379;28;20044;-70
2021/11/16 12:36:19;;;;;;;57.88;21.10;;;;;;;;;;5087533;28;20158;-70
2021/11/16 12:38:47;;;;;;;50.58;19.67;;;;;;;;;;5086780;28;20051;-70
2021/11/16 12:41:40;;;;;;;49.92;19.95;;;;;;;;;;5091416;28;20483;-70
2021/11/16 12:44:09;;;;;;;43.75;18.75;;;;;;;;;;5087869;28;20048;-70
2021/11/16 12:46:37;;;;;;;46.55;18.27;;;;;;;;;;5088904;28;20044;-70
2021/11/16 12:49:05;;;;;;;46.58;18.83;;;;;;;;;;5086569;28;20495;-70
2021/11/16 12:51:34;;;;;;;54.75;20.05;;;;;;;;;;5089927;28;20058;-70
2021/11/16 12:54:02;;;;;;;51.28;19.38;;;;;;;;;;5091110;28;20123;-71
2021/11/16 12:56:42;;;;;;;50.00;19.35;;;;;;;;;;5106857;28;20054;-70
2021/11/16 12:59:09;;;;;;;46.55;18.65;;;;;;;;;;5084790;28;20044;-70
2021/11/16 13:01:35;;;;;;;54.45;20.65;;;;;;;;;;5092032;28;20127;-70
2021/11/16 13:04:05;;;;;;;54.08;20.00;;;;;;;;;;5091854;28;20052;-70
2021/11/16 13:06:32;;;;;;;49.90;19.83;;;;;;;;;;5091455;28;20098;-70
2021/11/16 13:08:58;;;;;;;49.67;19.15;;;;;;;;;;5091537;28;20219;-70
2021/11/16 13:11:40;;;;;;;48.08;19.05;;;;;;;;;;5091035;28;20480;-70
2021/11/16 13:14:08;;;;;;;49.47;19.45;;;;;;;;;;5087960;28;20148;-70
2021/11/16 13:16:35;;;;;;;46.33;19.48;;;;;;;;;;5092083;28;20119;-70
2021/11/16 13:19:01;;;;;;;55.05;23.30;;;;;;;;;;5089909;28;20037;-73
2021/11/16 13:21:28;;;;;;;57.65;22.50;;;;;;;;;;5089291;28;20575;-70
2021/11/16 13:23:58;;;;;;;59.00;23.63;;;;;;;;;;5091693;28;20394;-71
2021/11/16 13:26:24;;;;;;;60.15;22.35;;;;;;;;;;5091158;28;20485;-71
2021/11/16 13:28:59;;;;;;;52.88;21.95;;;;;;;;;;5088546;28;20102;-70
2021/11/16 13:31:31;;;;;;;59.60;23.48;;;;;;;;;;5087560;28;20119;-70
2021/11/16 13:33:58;;;;;;;63.10;23.00;;;;;;;;;;5064229;28;20055;-69
2021/11/16 13:36:26;;;;;;;68.20;24.40;;;;;;;;;;5074481;28;20079;-71
2021/11/16 13:38:52;;;;;;;63.50;24.38;;;;;;;;;;5085489;28;20399;-71
2021/11/16 13:41:39;;;;;;;69.07;24.80;;;;;;;;;;5083421;28;20052;-69
2021/11/16 13:44:13;;;;;;;68.53;24.88;;;;;;;;;;5084401;28;20055;-70
2021/11/16 13:46:40;;;;;;;69.35;25.95;;;;;;;;;;5104362;28;20450;-70
2021/11/16 13:49:07;;;;;;;74.85;27.63;;;;;;;;;;5088721;28;20122;-70
2021/11/16 13:51:34;;;;;;;71.38;27.60;;;;;;;;;;5090275;28;20037;-70
2021/11/16 13:54:01;;;;;;;65.55;24.77;;;;;;;;;;5087881;28;20478;-70
2021/11/16 13:56:28;;;;;;;87.47;27.30;;;;;;;;;;5088883;28;20032;-70
2021/11/16 13:58:54;;;;;;;62.45;24.08;;;;;;;;;;5086622;28;20044;-70
2021/11/16 14:01:28;;;;;;;70.88;26.13;;;;;;;;;;5088694;28;20079;-70
2021/11/16 14:04:16;;;;;;;67.10;24.60;;;;;;;;;;5087672;28;20073;-70
2021/11/16 14:06:43;;;;;;;74.20;25.25;;;;;;;;;;5102108;28;20220;-70
2021/11/16 14:09:22;;;;;;;68.32;24.40;;;;;;;;;;5086047;28;20048;-70
2021/11/16 14:11:48;;;;;;;53.17;20.75;;;;;;;;;;5088162;28;20596;-70
2021/11/16 14:14:16;;;;;;;61.35;22.77;;;;;;;;;;5085526;28;20052;-70
2021/11/16 14:16:42;;;;;;;57.17;21.98;;;;;;;;;;5082141;28;20425;-70
2021/11/16 14:19:08;;;;;;;63.38;23.58;;;;;;;;;;5084883;28;20040;-70
2021/11/16 14:21:38;;;;;;;60.17;22.25;;;;;;;;;;5085649;28;20040;-70
2021/11/16 14:24:04;;;;;;;59.90;23.52;;;;;;;;;;5080713;28;20075;-70
2021/11/16 14:26:30;;;;;;;64.40;22.17;;;;;;;;;;5078623;28;20052;-70
2021/11/16 14:28:57;;;;;;;72.80;24.48;;;;;;;;;;5089954;28;20059;-70
2021/11/16 14:31:25;;;;;;;67.70;26.38;;;;;;;;;;5080253;28;20055;-70
2021/11/16 14:33:53;;;;;;;72.43;25.67;;;;;;;;;;5079669;28;20051;-70
2021/11/16 14:36:29;;;;;;;68.03;25.40;;;;;;;;;;5087281;28;20065;-70